sensor_id;sensor_type;location;lat;lon;timestamp;temperature;humidity
4374;DHT22;2201;51.100;6.814;2024-01-30T00:02:17;9.40;98.20
4374;DHT22;2201;51.100;6.814;2024-01-30T00:04:44;9.30;98.20
4374;DHT22;2201;51.100;6.814;2024-01-30T00:07:11;9.30;98.20
4374;DHT22;2201;51.100;6.814;2024-01-30T00:09:39;9.30;98.20
4374;DHT22;2201;51.100;6.814;2024-01-30T00:12:06;9.20;98.20
4374;DHT22;2201;51.100;6.814;2024-01-30T00:14:33;9.20;98.20
4374;DHT22;2201;51.100;6.814;2024-01-30T00:17:00;9.20;98.20
4374;DHT22;2201;51.100;6.814;2024-01-30T00:19:27;9.10;98.20
4374;DHT22;2201;51.100;6.814;2024-01-30T00:21:54;9.10;98.20
4374;DHT22;2201;51.100;6.814;2024-01-30T00:24:20;9.00;98.20
4374;DHT22;2201;51.100;6.814;2024-01-30T00:26:49;9.00;98.20
4374;DHT22;2201;51.100;6.814;2024-01-30T00:29:16;9.00;98.20
4374;DHT22;2201;51.100;6.814;2024-01-30T00:31:45;9.00;98.20
4374;DHT22;2201;51.100;6.814;2024-01-30T00:34:12;8.90;98.20
4374;DHT22;2201;51.100;6.814;2024-01-30T00:36:38;8.90;98.20
4374;DHT22;2201;51.100;6.814;2024-01-30T00:39:05;8.80;98.20
4374;DHT22;2201;51.100;6.814;2024-01-30T00:41:34;8.80;98.20
4374;DHT22;2201;51.100;6.814;2024-01-30T00:44:02;8.80;98.20
4374;DHT22;2201;51.100;6.814;2024-01-30T00:46:29;8.70;98.20
4374;DHT22;2201;51.100;6.814;2024-01-30T00:48:56;8.70;98.20
4374;DHT22;2201;51.100;6.814;2024-01-30T00:51:23;8.70;98.20
4374;DHT22;2201;51.100;6.814;2024-01-30T00:53:50;8.70;98.20
4374;DHT22;2201;51.100;6.814;2024-01-30T00:56:17;8.60;98.20
4374;DHT22;2201;51.100;6.814;2024-01-30T00:58:44;8.60;98.20
4374;DHT22;2201;51.100;6.814;2024-01-30T01:01:12;8.60;98.20
4374;DHT22;2201;51.100;6.814;2024-01-30T01:03:40;8.60;98.20
4374;DHT22;2201;51.100;6.814;2024-01-30T01:06:09;8.60;98.20
4374;DHT22;2201;51.100;6.814;2024-01-30T01:08:35;8.60;98.20
4374;DHT22;2201;51.100;6.814;2024-01-30T01:11:02;8.60;98.20
4374;DHT22;2201;51.100;6.814;2024-01-30T01:13:29;8.60;98.20
4374;DHT22;2201;51.100;6.814;2024-01-30T01:15:56;8.50;98.20
4374;DHT22;2201;51.100;6.814;2024-01-30T01:18:24;8.50;98.20
4374;DHT22;2201;51.100;6.814;2024-01-30T01:20:52;8.50;98.20
4374;DHT22;2201;51.100;6.814;2024-01-30T01:23:20;8.50;98.20
4374;DHT22;2201;51.100;6.814;2024-01-30T01:25:47;8.50;98.20
4374;DHT22;2201;51.100;6.814;2024-01-30T01:28:14;8.50;98.20
4374;DHT22;2201;51.100;6.814;2024-01-30T01:30:41;8.40;98.20
4374;DHT22;2201;51.100;6.814;2024-01-30T01:33:07;8.40;98.20
4374;DHT22;2201;51.100;6.814;2024-01-30T01:35:36;8.40;98.20
4374;DHT22;2201;51.100;6.814;2024-01-30T01:38:03;8.40;98.20
4374;DHT22;2201;51.100;6.814;2024-01-30T01:40:30;8.40;98.20
4374;DHT22;2201;51.100;6.814;2024-01-30T01:42:58;8.30;98.20
4374;DHT22;2201;51.100;6.814;2024-01-30T01:45:26;8.30;98.20
4374;DHT22;2201;51.100;6.814;2024-01-30T01:47:55;8.30;98.20
4374;DHT22;2201;51.100;6.814;2024-01-30T01:50:23;8.30;98.20
4374;DHT22;2201;51.100;6.814;2024-01-30T01:52:52;8.30;98.20
4374;DHT22;2201;51.100;6.814;2024-01-30T01:55:21;8.30;98.20
4374;DHT22;2201;51.100;6.814;2024-01-30T01:57:50;8.30;98.20
4374;DHT22;2201;51.100;6.814;2024-01-30T02:00:16;8.30;98.20
4374;DHT22;2201;51.100;6.814;2024-01-30T02:02:45;8.30;98.20
4374;DHT22;2201;51.100;6.814;2024-01-30T02:05:12;8.30;98.20
4374;DHT22;2201;51.100;6.814;2024-01-30T02:07:39;8.30;98.20
4374;DHT22;2201;51.100;6.814;2024-01-30T02:10:09;8.30;98.20
4374;DHT22;2201;51.100;6.814;2024-01-30T02:12:36;8.30;98.20
4374;DHT22;2201;51.100;6.814;2024-01-30T02:15:04;8.30;98.20
4374;DHT22;2201;51.100;6.814;2024-01-30T02:17:32;8.30;98.20
4374;DHT22;2201;51.100;6.814;2024-01-30T02:19:59;8.30;98.20
4374;DHT22;2201;51.100;6.814;2024-01-30T02:22:28;8.30;98.20
4374;DHT22;2201;51.100;6.814;2024-01-30T02:24:55;8.30;98.20
4374;DHT22;2201;51.100;6.814;2024-01-30T02:27:22;8.30;98.20
4374;DHT22;2201;51.100;6.814;2024-01-30T02:29:48;8.30;98.20
4374;DHT22;2201;51.100;6.814;2024-01-30T02:32:15;8.30;98.20
4374;DHT22;2201;51.100;6.814;2024-01-30T02:34:42;8.30;98.20
4374;DHT22;2201;51.100;6.814;2024-01-30T02:37:09;8.30;98.20
4374;DHT22;2201;51.100;6.814;2024-01-30T02:39:38;8.30;98.20
4374;DHT22;2201;51.100;6.814;2024-01-30T02:42:06;8.30;98.20
4374;DHT22;2201;51.100;6.814;2024-01-30T02:44:33;8.30;98.20
4374;DHT22;2201;51.100;6.814;2024-01-30T02:47:00;8.30;98.20
4374;DHT22;2201;51.100;6.814;2024-01-30T02:49:30;8.30;98.20
4374;DHT22;2201;51.100;6.814;2024-01-30T02:51:57;8.30;98.20
4374;DHT22;2201;51.100;6.814;2024-01-30T02:54:24;8.30;98.20
4374;DHT22;2201;51.100;6.814;2024-01-30T02:56:52;8.40;98.20
4374;DHT22;2201;51.100;6.814;2024-01-30T02:59:19;8.40;98.20
4374;DHT22;2201;51.100;6.814;2024-01-30T03:01:46;8.40;98.20
4374;DHT22;2201;51.100;6.814;2024-01-30T03:04:17;8.40;98.20
4374;DHT22;2201;51.100;6.814;2024-01-30T03:06:48;8.40;98.20
4374;DHT22;2201;51.100;6.814;2024-01-30T03:09:16;8.40;98.20
4374;DHT22;2201;51.100;6.814;2024-01-30T03:11:43;8.40;98.20
4374;DHT22;2201;51.100;6.814;2024-01-30T03:14:12;8.40;98.20
4374;DHT22;2201;51.100;6.814;2024-01-30T03:16:39;8.40;98.20
4374;DHT22;2201;51.100;6.814;2024-01-30T03:19:06;8.40;98.20
4374;DHT22;2201;51.100;6.814;2024-01-30T03:21:35;8.50;98.20
4374;DHT22;2201;51.100;6.814;2024-01-30T03:24:02;8.50;98.20
4374;DHT22;2201;51.100;6.814;2024-01-30T03:26:29;8.50;98.20
4374;DHT22;2201;51.100;6.814;2024-01-30T03:28:56;8.50;98.20
4374;DHT22;2201;51.100;6.814;2024-01-30T03:31:24;8.60;98.20
4374;DHT22;2201;51.100;6.814;2024-01-30T03:33:51;8.60;98.20
4374;DHT22;2201;51.100;6.814;2024-01-30T03:36:18;8.60;98.20
4374;DHT22;2201;51.100;6.814;2024-01-30T03:38:45;8.60;98.20
4374;DHT22;2201;51.100;6.814;2024-01-30T03:41:11;8.60;98.20
4374;DHT22;2201;51.100;6.814;2024-01-30T03:43:38;8.60;98.20
4374;DHT22;2201;51.100;6.814;2024-01-30T03:46:05;8.60;98.20
4374;DHT22;2201;51.100;6.814;2024-01-30T03:48:33;8.60;98.20
4374;DHT22;2201;51.100;6.814;2024-01-30T03:51:00;8.60;98.20
4374;DHT22;2201;51.100;6.814;2024-01-30T03:53:27;8.70;98.20
4374;DHT22;2201;51.100;6.814;2024-01-30T03:55:54;8.70;98.20
4374;DHT22;2201;51.100;6.814;2024-01-30T03:58:21;8.70;98.20
4374;DHT22;2201;51.100;6.814;2024-01-30T04:00:48;8.70;98.20
4374;DHT22;2201;51.100;6.814;2024-01-30T04:03:15;8.70;98.20
4374;DHT22;2201;51.100;6.814;2024-01-30T04:05:43;8.70;98.20
4374;DHT22;2201;51.100;6.814;2024-01-30T04:08:10;8.70;98.20
4374;DHT22;2201;51.100;6.814;2024-01-30T04:10:37;8.60;98.20
4374;DHT22;2201;51.100;6.814;2024-01-30T04:13:04;8.60;98.20
4374;DHT22;2201;51.100;6.814;2024-01-30T04:15:31;8.70;98.20
4374;DHT22;2201;51.100;6.814;2024-01-30T04:18:03;8.70;98.20
4374;DHT22;2201;51.100;6.814;2024-01-30T04:24:15;8.80;98.20
4374;DHT22;2201;51.100;6.814;2024-01-30T04:26:44;8.80;98.20
4374;DHT22;2201;51.100;6.814;2024-01-30T04:29:11;8.90;98.20
4374;DHT22;2201;51.100;6.814;2024-01-30T04:31:38;8.90;98.20
4374;DHT22;2201;51.100;6.814;2024-01-30T04:34:04;8.90;98.20
4374;DHT22;2201;51.100;6.814;2024-01-30T04:36:31;8.90;98.20
4374;DHT22;2201;51.100;6.814;2024-01-30T04:38:58;8.90;98.20
4374;DHT22;2201;51.100;6.814;2024-01-30T04:41:26;8.90;98.20
4374;DHT22;2201;51.100;6.814;2024-01-30T04:44:25;8.90;98.20
4374;DHT22;2201;51.100;6.814;2024-01-30T04:46:51;8.80;98.20
4374;DHT22;2201;51.100;6.814;2024-01-30T04:49:18;8.80;98.20
4374;DHT22;2201;51.100;6.814;2024-01-30T04:51:45;8.80;98.20
4374;DHT22;2201;51.100;6.814;2024-01-30T04:54:12;8.80;98.20
4374;DHT22;2201;51.100;6.814;2024-01-30T04:56:40;8.80;98.20
4374;DHT22;2201;51.100;6.814;2024-01-30T04:59:15;8.80;98.20
4374;DHT22;2201;51.100;6.814;2024-01-30T05:01:41;8.80;98.20
4374;DHT22;2201;51.100;6.814;2024-01-30T05:04:09;8.80;98.20
4374;DHT22;2201;51.100;6.814;2024-01-30T05:06:37;8.80;98.20
4374;DHT22;2201;51.100;6.814;2024-01-30T05:09:03;8.80;98.20
4374;DHT22;2201;51.100;6.814;2024-01-30T05:11:30;8.70;98.20
4374;DHT22;2201;51.100;6.814;2024-01-30T05:13:59;8.70;98.20
4374;DHT22;2201;51.100;6.814;2024-01-30T05:16:26;8.70;98.20
4374;DHT22;2201;51.100;6.814;2024-01-30T05:18:54;8.80;98.20
4374;DHT22;2201;51.100;6.814;2024-01-30T05:25:21;8.80;98.20
4374;DHT22;2201;51.100;6.814;2024-01-30T05:28:01;8.80;98.20
4374;DHT22;2201;51.100;6.814;2024-01-30T05:30:59;8.80;98.20
4374;DHT22;2201;51.100;6.814;2024-01-30T05:33:28;8.80;98.20
4374;DHT22;2201;51.100;6.814;2024-01-30T05:35:55;8.80;98.20
4374;DHT22;2201;51.100;6.814;2024-01-30T05:38:43;8.80;98.20
4374;DHT22;2201;51.100;6.814;2024-01-30T05:41:10;8.80;98.20
4374;DHT22;2201;51.100;6.814;2024-01-30T05:43:37;8.80;98.20
4374;DHT22;2201;51.100;6.814;2024-01-30T05:46:06;8.80;98.20
4374;DHT22;2201;51.100;6.814;2024-01-30T05:55:19;8.80;98.20
4374;DHT22;2201;51.100;6.814;2024-01-30T05:57:46;8.80;98.20
4374;DHT22;2201;51.100;6.814;2024-01-30T06:00:21;8.70;98.20
4374;DHT22;2201;51.100;6.814;2024-01-30T06:02:50;8.60;98.20
4374;DHT22;2201;51.100;6.814;2024-01-30T06:05:18;8.60;98.20
4374;DHT22;2201;51.100;6.814;2024-01-30T06:07:45;8.50;98.20
4374;DHT22;2201;51.100;6.814;2024-01-30T06:10:14;8.50;98.20
4374;DHT22;2201;51.100;6.814;2024-01-30T06:12:48;8.40;98.20
4374;DHT22;2201;51.100;6.814;2024-01-30T06:15:17;8.40;98.20
4374;DHT22;2201;51.100;6.814;2024-01-30T06:17:44;8.40;98.20
4374;DHT22;2201;51.100;6.814;2024-01-30T06:20:25;8.40;98.20
4374;DHT22;2201;51.100;6.814;2024-01-30T06:22:58;8.40;98.20
4374;DHT22;2201;51.100;6.814;2024-01-30T06:25:25;8.40;98.20
4374;DHT22;2201;51.100;6.814;2024-01-30T06:27:58;8.30;98.20
4374;DHT22;2201;51.100;6.814;2024-01-30T06:30:34;8.30;98.20
4374;DHT22;2201;51.100;6.814;2024-01-30T06:33:02;8.30;98.20
4374;DHT22;2201;51.100;6.814;2024-01-30T06:35:36;8.30;98.20
4374;DHT22;2201;51.100;6.814;2024-01-30T06:38:08;8.30;98.20
4374;DHT22;2201;51.100;6.814;2024-01-30T06:40:46;8.30;98.20
4374;DHT22;2201;51.100;6.814;2024-01-30T06:43:32;8.20;98.20
4374;DHT22;2201;51.100;6.814;2024-01-30T06:46:10;8.20;98.20
4374;DHT22;2201;51.100;6.814;2024-01-30T06:48:38;8.20;98.20
4374;DHT22;2201;51.100;6.814;2024-01-30T06:51:07;8.20;98.20
4374;DHT22;2201;51.100;6.814;2024-01-30T06:53:47;8.20;98.20
4374;DHT22;2201;51.100;6.814;2024-01-30T06:56:24;8.20;98.20
4374;DHT22;2201;51.100;6.814;2024-01-30T06:58:51;8.20;98.20
4374;DHT22;2201;51.100;6.814;2024-01-30T07:01:18;8.20;98.20
4374;DHT22;2201;51.100;6.814;2024-01-30T07:03:45;8.20;98.20
4374;DHT22;2201;51.100;6.814;2024-01-30T07:06:14;8.20;98.20
4374;DHT22;2201;51.100;6.814;2024-01-30T07:08:40;8.30;98.20
4374;DHT22;2201;51.100;6.814;2024-01-30T07:11:07;8.30;98.20
4374;DHT22;2201;51.100;6.814;2024-01-30T07:13:34;8.30;98.20
4374;DHT22;2201;51.100;6.814;2024-01-30T07:16:01;8.40;98.20
4374;DHT22;2201;51.100;6.814;2024-01-30T07:18:28;8.40;98.20
4374;DHT22;2201;51.100;6.814;2024-01-30T07:20:55;8.40;98.20
4374;DHT22;2201;51.100;6.814;2024-01-30T07:23:29;8.40;98.20
4374;DHT22;2201;51.100;6.814;2024-01-30T07:25:56;8.40;98.20
4374;DHT22;2201;51.100;6.814;2024-01-30T07:28:23;8.40;98.20
4374;DHT22;2201;51.100;6.814;2024-01-30T07:30:49;8.40;98.20
4374;DHT22;2201;51.100;6.814;2024-01-30T07:33:16;8.40;98.20
4374;DHT22;2201;51.100;6.814;2024-01-30T07:35:43;8.40;98.20
4374;DHT22;2201;51.100;6.814;2024-01-30T07:38:10;8.40;98.20
4374;DHT22;2201;51.100;6.814;2024-01-30T07:40:38;8.50;98.20
4374;DHT22;2201;51.100;6.814;2024-01-30T07:43:05;8.50;98.20
4374;DHT22;2201;51.100;6.814;2024-01-30T07:45:31;8.50;98.20
4374;DHT22;2201;51.100;6.814;2024-01-30T07:47:59;8.50;98.20
4374;DHT22;2201;51.100;6.814;2024-01-30T07:50:26;8.50;98.20
4374;DHT22;2201;51.100;6.814;2024-01-30T07:52:53;8.50;98.20
4374;DHT22;2201;51.100;6.814;2024-01-30T07:55:20;8.50;98.20
4374;DHT22;2201;51.100;6.814;2024-01-30T07:57:52;8.50;98.20
4374;DHT22;2201;51.100;6.814;2024-01-30T08:00:19;8.50;98.20
4374;DHT22;2201;51.100;6.814;2024-01-30T08:02:46;8.60;98.20
4374;DHT22;2201;51.100;6.814;2024-01-30T08:05:13;8.60;98.20
4374;DHT22;2201;51.100;6.814;2024-01-30T08:07:40;8.60;98.20
4374;DHT22;2201;51.100;6.814;2024-01-30T08:10:08;8.60;98.20
4374;DHT22;2201;51.100;6.814;2024-01-30T08:12:35;8.60;98.20
4374;DHT22;2201;51.100;6.814;2024-01-30T08:15:04;8.60;98.20
4374;DHT22;2201;51.100;6.814;2024-01-30T08:17:31;8.70;98.20
4374;DHT22;2201;51.100;6.814;2024-01-30T08:19:58;8.70;98.20
4374;DHT22;2201;51.100;6.814;2024-01-30T08:22:25;8.70;98.20
4374;DHT22;2201;51.100;6.814;2024-01-30T08:24:52;8.80;98.20
4374;DHT22;2201;51.100;6.814;2024-01-30T08:27:18;8.80;98.20
4374;DHT22;2201;51.100;6.814;2024-01-30T08:29:45;8.90;98.20
4374;DHT22;2201;51.100;6.814;2024-01-30T08:32:13;8.90;98.20
4374;DHT22;2201;51.100;6.814;2024-01-30T08:34:40;9.00;98.20
4374;DHT22;2201;51.100;6.814;2024-01-30T08:37:07;9.00;98.20
4374;DHT22;2201;51.100;6.814;2024-01-30T08:39:33;9.00;98.20
4374;DHT22;2201;51.100;6.814;2024-01-30T08:42:00;9.10;98.20
4374;DHT22;2201;51.100;6.814;2024-01-30T08:44:27;9.10;98.20
4374;DHT22;2201;51.100;6.814;2024-01-30T08:46:54;9.20;98.20
4374;DHT22;2201;51.100;6.814;2024-01-30T08:49:22;9.20;98.20
4374;DHT22;2201;51.100;6.814;2024-01-30T08:51:49;9.30;98.20
4374;DHT22;2201;51.100;6.814;2024-01-30T08:54:16;9.40;98.20
4374;DHT22;2201;51.100;6.814;2024-01-30T08:56:44;9.50;98.20
4374;DHT22;2201;51.100;6.814;2024-01-30T08:59:10;9.50;98.20
4374;DHT22;2201;51.100;6.814;2024-01-30T09:01:37;9.60;98.20
4374;DHT22;2201;51.100;6.814;2024-01-30T09:04:04;9.60;98.20
4374;DHT22;2201;51.100;6.814;2024-01-30T09:06:32;9.70;98.20
4374;DHT22;2201;51.100;6.814;2024-01-30T09:08:59;9.70;98.20
4374;DHT22;2201;51.100;6.814;2024-01-30T09:11:26;9.70;98.20
4374;DHT22;2201;51.100;6.814;2024-01-30T09:13:53;9.80;98.20
4374;DHT22;2201;51.100;6.814;2024-01-30T09:16:20;9.80;98.20
4374;DHT22;2201;51.100;6.814;2024-01-30T09:18:46;9.90;98.20
4374;DHT22;2201;51.100;6.814;2024-01-30T09:21:13;9.90;98.20
4374;DHT22;2201;51.100;6.814;2024-01-30T09:23:41;9.90;98.20
4374;DHT22;2201;51.100;6.814;2024-01-30T09:26:08;9.90;98.20
4374;DHT22;2201;51.100;6.814;2024-01-30T09:28:35;9.90;98.20
4374;DHT22;2201;51.100;6.814;2024-01-30T09:31:02;10.00;98.20
4374;DHT22;2201;51.100;6.814;2024-01-30T09:33:29;10.00;98.20
4374;DHT22;2201;51.100;6.814;2024-01-30T09:35:55;10.10;98.20
4374;DHT22;2201;51.100;6.814;2024-01-30T09:38:22;10.10;98.20
4374;DHT22;2201;51.100;6.814;2024-01-30T09:40:54;10.20;98.20
4374;DHT22;2201;51.100;6.814;2024-01-30T09:43:23;10.30;98.20
4374;DHT22;2201;51.100;6.814;2024-01-30T09:45:50;10.30;98.20
4374;DHT22;2201;51.100;6.814;2024-01-30T09:48:17;10.40;98.20
4374;DHT22;2201;51.100;6.814;2024-01-30T09:50:44;10.40;98.20
4374;DHT22;2201;51.100;6.814;2024-01-30T09:53:11;10.50;98.20
4374;DHT22;2201;51.100;6.814;2024-01-30T09:55:43;10.50;98.20
4374;DHT22;2201;51.100;6.814;2024-01-30T09:58:12;10.50;98.20
4374;DHT22;2201;51.100;6.814;2024-01-30T10:00:39;10.60;98.20
4374;DHT22;2201;51.100;6.814;2024-01-30T10:03:05;10.60;98.20
4374;DHT22;2201;51.100;6.814;2024-01-30T10:05:33;10.70;98.20
4374;DHT22;2201;51.100;6.814;2024-01-30T10:08:06;10.70;98.20
4374;DHT22;2201;51.100;6.814;2024-01-30T10:10:33;10.80;98.20
4374;DHT22;2201;51.100;6.814;2024-01-30T10:13:00;10.80;98.20
4374;DHT22;2201;51.100;6.814;2024-01-30T10:15:29;10.90;98.20
4374;DHT22;2201;51.100;6.814;2024-01-30T10:17:56;11.00;98.20
4374;DHT22;2201;51.100;6.814;2024-01-30T10:20:24;11.00;98.20
4374;DHT22;2201;51.100;6.814;2024-01-30T10:22:51;11.10;98.20
4374;DHT22;2201;51.100;6.814;2024-01-30T10:25:18;11.20;98.20
4374;DHT22;2201;51.100;6.814;2024-01-30T10:27:45;11.20;98.20
4374;DHT22;2201;51.100;6.814;2024-01-30T10:30:12;11.30;98.20
4374;DHT22;2201;51.100;6.814;2024-01-30T10:32:40;11.40;98.20
4374;DHT22;2201;51.100;6.814;2024-01-30T10:35:07;11.50;98.20
4374;DHT22;2201;51.100;6.814;2024-01-30T10:37:34;11.50;98.20
4374;DHT22;2201;51.100;6.814;2024-01-30T10:40:03;11.60;98.20
4374;DHT22;2201;51.100;6.814;2024-01-30T10:42:32;11.60;98.20
4374;DHT22;2201;51.100;6.814;2024-01-30T10:45:06;11.60;98.20
4374;DHT22;2201;51.100;6.814;2024-01-30T10:47:35;11.70;98.20
4374;DHT22;2201;51.100;6.814;2024-01-30T10:50:04;11.70;98.20
4374;DHT22;2201;51.100;6.814;2024-01-30T10:52:32;11.80;98.20
4374;DHT22;2201;51.100;6.814;2024-01-30T10:54:59;11.80;98.20
4374;DHT22;2201;51.100;6.814;2024-01-30T10:57:26;11.80;98.20
4374;DHT22;2201;51.100;6.814;2024-01-30T10:59:56;11.90;98.20
4374;DHT22;2201;51.100;6.814;2024-01-30T11:02:24;12.00;98.20
4374;DHT22;2201;51.100;6.814;2024-01-30T11:04:56;12.00;98.20
4374;DHT22;2201;51.100;6.814;2024-01-30T11:07:26;12.10;98.20
4374;DHT22;2201;51.100;6.814;2024-01-30T11:09:54;12.10;98.20
4374;DHT22;2201;51.100;6.814;2024-01-30T11:12:27;12.00;98.20
4374;DHT22;2201;51.100;6.814;2024-01-30T11:15:05;12.10;98.20
4374;DHT22;2201;51.100;6.814;2024-01-30T11:17:42;12.10;98.20
4374;DHT22;2201;51.100;6.814;2024-01-30T11:20:14;12.10;98.20
4374;DHT22;2201;51.100;6.814;2024-01-30T11:22:45;12.10;98.20
4374;DHT22;2201;51.100;6.814;2024-01-30T11:25:13;12.00;98.20
4374;DHT22;2201;51.100;6.814;2024-01-30T11:27:41;12.00;98.20
4374;DHT22;2201;51.100;6.814;2024-01-30T11:30:08;12.10;98.20
4374;DHT22;2201;51.100;6.814;2024-01-30T11:32:35;12.20;98.20
4374;DHT22;2201;51.100;6.814;2024-01-30T11:35:12;12.30;98.20
4374;DHT22;2201;51.100;6.814;2024-01-30T11:37:39;12.30;98.20
4374;DHT22;2201;51.100;6.814;2024-01-30T11:40:08;12.40;98.20
4374;DHT22;2201;51.100;6.814;2024-01-30T11:42:36;12.40;98.20
4374;DHT22;2201;51.100;6.814;2024-01-30T11:45:05;12.50;98.20
4374;DHT22;2201;51.100;6.814;2024-01-30T11:47:35;12.50;98.20
4374;DHT22;2201;51.100;6.814;2024-01-30T11:50:02;12.60;98.20
4374;DHT22;2201;51.100;6.814;2024-01-30T11:52:29;12.60;98.20
4374;DHT22;2201;51.100;6.814;2024-01-30T11:54:56;12.50;98.20
4374;DHT22;2201;51.100;6.814;2024-01-30T11:57:24;12.50;98.20
4374;DHT22;2201;51.100;6.814;2024-01-30T11:59:51;12.50;98.20
4374;DHT22;2201;51.100;6.814;2024-01-30T12:02:18;12.50;98.20
4374;DHT22;2201;51.100;6.814;2024-01-30T12:04:44;12.50;98.20
4374;DHT22;2201;51.100;6.814;2024-01-30T12:07:11;12.50;98.20
4374;DHT22;2201;51.100;6.814;2024-01-30T12:09:41;12.50;98.20
4374;DHT22;2201;51.100;6.814;2024-01-30T12:12:08;12.50;98.20
4374;DHT22;2201;51.100;6.814;2024-01-30T12:14:39;12.50;98.20
4374;DHT22;2201;51.100;6.814;2024-01-30T12:17:06;12.60;98.20
4374;DHT22;2201;51.100;6.814;2024-01-30T12:19:34;12.60;98.20
4374;DHT22;2201;51.100;6.814;2024-01-30T12:22:02;12.60;98.20
4374;DHT22;2201;51.100;6.814;2024-01-30T12:24:29;12.60;98.20
4374;DHT22;2201;51.100;6.814;2024-01-30T12:26:57;12.60;98.20
4374;DHT22;2201;51.100;6.814;2024-01-30T12:29:24;12.60;98.20
4374;DHT22;2201;51.100;6.814;2024-01-30T12:31:54;12.60;98.20
4374;DHT22;2201;51.100;6.814;2024-01-30T12:34:24;12.60;98.20
4374;DHT22;2201;51.100;6.814;2024-01-30T12:36:51;12.60;98.20
4374;DHT22;2201;51.100;6.814;2024-01-30T12:39:18;12.60;98.20
4374;DHT22;2201;51.100;6.814;2024-01-30T12:41:45;12.60;98.20
4374;DHT22;2201;51.100;6.814;2024-01-30T12:44:13;12.60;98.20
4374;DHT22;2201;51.100;6.814;2024-01-30T12:46:40;12.60;98.20
4374;DHT22;2201;51.100;6.814;2024-01-30T12:49:08;12.60;98.20
4374;DHT22;2201;51.100;6.814;2024-01-30T12:51:35;12.60;98.20
4374;DHT22;2201;51.100;6.814;2024-01-30T12:54:05;12.60;98.20
4374;DHT22;2201;51.100;6.814;2024-01-30T12:56:32;12.70;98.20
4374;DHT22;2201;51.100;6.814;2024-01-30T12:58:59;12.70;98.20
4374;DHT22;2201;51.100;6.814;2024-01-30T13:01:25;12.70;98.20
4374;DHT22;2201;51.100;6.814;2024-01-30T13:03:52;12.70;98.20
4374;DHT22;2201;51.100;6.814;2024-01-30T13:06:20;12.70;98.20
4374;DHT22;2201;51.100;6.814;2024-01-30T13:08:47;12.70;98.20
4374;DHT22;2201;51.100;6.814;2024-01-30T13:11:14;12.70;98.20
4374;DHT22;2201;51.100;6.814;2024-01-30T13:13:41;12.70;98.20
4374;DHT22;2201;51.100;6.814;2024-01-30T13:16:08;12.70;98.20
4374;DHT22;2201;51.100;6.814;2024-01-30T13:18:34;12.70;98.20
4374;DHT22;2201;51.100;6.814;2024-01-30T13:21:01;12.70;98.20
4374;DHT22;2201;51.100;6.814;2024-01-30T13:23:29;12.70;98.20
4374;DHT22;2201;51.100;6.814;2024-01-30T13:25:56;12.70;98.20
4374;DHT22;2201;51.100;6.814;2024-01-30T13:28:24;12.70;98.20
4374;DHT22;2201;51.100;6.814;2024-01-30T13:30:51;12.70;98.20
4374;DHT22;2201;51.100;6.814;2024-01-30T13:33:18;12.70;98.20
4374;DHT22;2201;51.100;6.814;2024-01-30T13:35:45;12.70;98.20
4374;DHT22;2201;51.100;6.814;2024-01-30T13:38:11;12.60;98.20
4374;DHT22;2201;51.100;6.814;2024-01-30T13:40:40;12.60;98.20
4374;DHT22;2201;51.100;6.814;2024-01-30T13:43:07;12.60;98.20
4374;DHT22;2201;51.100;6.814;2024-01-30T13:45:34;12.60;98.20
4374;DHT22;2201;51.100;6.814;2024-01-30T13:48:01;12.60;98.20
4374;DHT22;2201;51.100;6.814;2024-01-30T13:50:28;12.60;98.20
4374;DHT22;2201;51.100;6.814;2024-01-30T13:52:55;12.60;98.20
4374;DHT22;2201;51.100;6.814;2024-01-30T13:55:22;12.60;98.20
4374;DHT22;2201;51.100;6.814;2024-01-30T13:57:51;12.60;98.20
4374;DHT22;2201;51.100;6.814;2024-01-30T14:00:18;12.60;98.20
4374;DHT22;2201;51.100;6.814;2024-01-30T14:02:47;12.60;98.20
4374;DHT22;2201;51.100;6.814;2024-01-30T14:05:14;12.70;98.20
4374;DHT22;2201;51.100;6.814;2024-01-30T14:07:42;12.70;98.20
4374;DHT22;2201;51.100;6.814;2024-01-30T14:10:10;12.70;98.20
4374;DHT22;2201;51.100;6.814;2024-01-30T14:12:37;12.70;98.20
4374;DHT22;2201;51.100;6.814;2024-01-30T14:15:07;12.70;98.20
4374;DHT22;2201;51.100;6.814;2024-01-30T14:17:35;12.80;98.20
4374;DHT22;2201;51.100;6.814;2024-01-30T14:20:02;12.80;98.20
4374;DHT22;2201;51.100;6.814;2024-01-30T14:22:29;12.80;98.20
4374;DHT22;2201;51.100;6.814;2024-01-30T14:24:56;12.80;98.20
4374;DHT22;2201;51.100;6.814;2024-01-30T14:27:23;12.80;98.20
4374;DHT22;2201;51.100;6.814;2024-01-30T14:29:49;12.80;98.20
4374;DHT22;2201;51.100;6.814;2024-01-30T14:32:18;12.80;98.20
4374;DHT22;2201;51.100;6.814;2024-01-30T14:34:44;12.70;98.20
4374;DHT22;2201;51.100;6.814;2024-01-30T14:37:11;12.70;98.20
4374;DHT22;2201;51.100;6.814;2024-01-30T14:39:38;12.70;98.20
4374;DHT22;2201;51.100;6.814;2024-01-30T14:42:06;12.60;98.20
4374;DHT22;2201;51.100;6.814;2024-01-30T14:44:33;12.60;98.20
4374;DHT22;2201;51.100;6.814;2024-01-30T14:47:00;12.60;98.20
4374;DHT22;2201;51.100;6.814;2024-01-30T14:49:29;12.60;98.20
4374;DHT22;2201;51.100;6.814;2024-01-30T14:51:55;12.50;98.20
4374;DHT22;2201;51.100;6.814;2024-01-30T14:54:23;12.50;98.20
4374;DHT22;2201;51.100;6.814;2024-01-30T14:56:51;12.50;98.20
4374;DHT22;2201;51.100;6.814;2024-01-30T14:59:18;12.50;98.20
4374;DHT22;2201;51.100;6.814;2024-01-30T15:01:45;12.50;98.20
4374;DHT22;2201;51.100;6.814;2024-01-30T15:04:13;12.40;98.20
4374;DHT22;2201;51.100;6.814;2024-01-30T15:06:41;12.40;98.20
4374;DHT22;2201;51.100;6.814;2024-01-30T15:09:11;12.40;98.20
4374;DHT22;2201;51.100;6.814;2024-01-30T15:11:40;12.40;98.20
4374;DHT22;2201;51.100;6.814;2024-01-30T15:14:07;12.30;98.20
4374;DHT22;2201;51.100;6.814;2024-01-30T15:16:34;12.30;98.20
4374;DHT22;2201;51.100;6.814;2024-01-30T15:19:01;12.30;98.20
4374;DHT22;2201;51.100;6.814;2024-01-30T15:21:28;12.30;98.20
4374;DHT22;2201;51.100;6.814;2024-01-30T15:23:56;12.20;98.20
4374;DHT22;2201;51.100;6.814;2024-01-30T15:26:23;12.20;98.20
4374;DHT22;2201;51.100;6.814;2024-01-30T15:28:51;12.20;98.20
4374;DHT22;2201;51.100;6.814;2024-01-30T15:31:18;12.20;98.20
4374;DHT22;2201;51.100;6.814;2024-01-30T15:33:45;12.10;98.20
4374;DHT22;2201;51.100;6.814;2024-01-30T15:36:11;12.10;98.20
4374;DHT22;2201;51.100;6.814;2024-01-30T15:38:40;12.10;98.20
4374;DHT22;2201;51.100;6.814;2024-01-30T15:41:08;12.00;98.20
4374;DHT22;2201;51.100;6.814;2024-01-30T15:43:35;12.00;98.20
4374;DHT22;2201;51.100;6.814;2024-01-30T15:46:02;11.90;98.20
4374;DHT22;2201;51.100;6.814;2024-01-30T15:48:29;11.80;98.20
4374;DHT22;2201;51.100;6.814;2024-01-30T15:50:56;11.80;98.20
4374;DHT22;2201;51.100;6.814;2024-01-30T15:53:23;11.70;98.20
4374;DHT22;2201;51.100;6.814;2024-01-30T15:55:51;11.70;98.20
4374;DHT22;2201;51.100;6.814;2024-01-30T15:58:19;11.60;98.20
4374;DHT22;2201;51.100;6.814;2024-01-30T16:00:46;11.60;98.20
4374;DHT22;2201;51.100;6.814;2024-01-30T16:03:16;11.50;98.20
4374;DHT22;2201;51.100;6.814;2024-01-30T16:05:43;11.50;98.20
4374;DHT22;2201;51.100;6.814;2024-01-30T16:08:11;11.50;98.20
4374;DHT22;2201;51.100;6.814;2024-01-30T16:10:38;11.40;98.20
4374;DHT22;2201;51.100;6.814;2024-01-30T16:13:04;11.40;98.20
4374;DHT22;2201;51.100;6.814;2024-01-30T16:15:32;11.40;98.20
4374;DHT22;2201;51.100;6.814;2024-01-30T16:17:59;11.30;98.20
4374;DHT22;2201;51.100;6.814;2024-01-30T16:20:26;11.20;98.20
4374;DHT22;2201;51.100;6.814;2024-01-30T16:22:53;11.20;98.20
4374;DHT22;2201;51.100;6.814;2024-01-30T16:25:21;11.20;98.20
4374;DHT22;2201;51.100;6.814;2024-01-30T16:27:48;11.10;98.20
4374;DHT22;2201;51.100;6.814;2024-01-30T16:30:15;11.10;98.20